createdAt,value
2019-04-21T00:02:26.488Z,14.60
2019-04-21T00:05:10.861Z,14.50
2019-04-21T00:07:36.184Z,14.40
2019-04-21T00:10:09.115Z,14.30
2019-04-21T00:12:28.491Z,14.20
2019-04-21T00:14:49.704Z,14.30
2019-04-21T00:17:12.989Z,14.20
2019-04-21T00:19:39.593Z,14.10
2019-04-21T00:22:19.280Z,14.20
2019-04-21T00:24:48.794Z,14.20
2019-04-21T00:27:21.420Z,14.20
2019-04-21T00:29:47.825Z,14.10
2019-04-21T00:32:13.575Z,14.10
2019-04-21T00:34:28.145Z,14.10
2019-04-21T00:37:08.310Z,14.10
2019-04-21T00:39:48.998Z,14.10
2019-04-21T00:42:11.308Z,14.00
2019-04-21T00:44:30.822Z,14.10
2019-04-21T00:47:04.149Z,14.10
2019-04-21T00:49:27.049Z,14.10
2019-04-21T00:52:24.355Z,14.10
2019-04-21T00:54:41.528Z,14.00
2019-04-21T00:57:14.620Z,14.00
2019-04-21T00:59:37.088Z,14.00
2019-04-21T01:01:59.696Z,14.00
2019-04-21T01:04:32.847Z,14.00
2019-04-21T01:07:05.306Z,13.90
2019-04-21T01:09:23.679Z,13.90
2019-04-21T01:11:55.291Z,13.90
2019-04-21T01:14:32.948Z,13.90
2019-04-21T01:16:57.720Z,13.90
2019-04-21T01:19:17.323Z,13.80
2019-04-21T01:21:28.624Z,13.80
2019-04-21T01:24:02.994Z,13.80
2019-04-21T01:26:32.828Z,13.80
2019-04-21T01:29:05.437Z,13.80
2019-04-21T01:31:36.678Z,13.70
2019-04-21T01:34:08.873Z,13.80
2019-04-21T01:36:34.675Z,13.60
2019-04-21T01:39:07.821Z,13.70
2019-04-21T01:41:35.105Z,13.60
2019-04-21T01:43:56.894Z,13.60
2019-04-21T01:46:25.665Z,13.60
2019-04-21T01:48:49.428Z,13.60
2019-04-21T01:51:22.523Z,13.50
2019-04-21T01:53:59.537Z,13.50
2019-04-21T01:56:24.722Z,13.50
2019-04-21T01:58:42.551Z,13.40
2019-04-21T02:01:19.365Z,13.40
2019-04-21T02:03:53.212Z,13.40
2019-04-21T02:06:22.194Z,13.40
2019-04-21T02:08:41.779Z,13.40
2019-04-21T02:11:18.876Z,13.40
2019-04-21T02:13:48.957Z,13.40
2019-04-21T02:16:11.410Z,13.30
2019-04-21T02:18:39.102Z,13.20
2019-04-21T02:20:55.409Z,13.20
2019-04-21T02:23:44.008Z,13.20
2019-04-21T02:26:03.334Z,13.20
2019-04-21T02:28:38.418Z,13.10
2019-04-21T02:38:39.157Z,13.10
2019-04-21T02:40:57.278Z,13.10
2019-04-21T02:43:24.868Z,13.00
2019-04-21T02:48:43.605Z,12.90
2019-04-21T02:51:12.592Z,13.00
2019-04-21T02:53:37.387Z,13.00
2019-04-21T02:55:58.695Z,12.90
2019-04-21T02:58:25.060Z,12.90
2019-04-21T03:03:29.770Z,12.90
2019-04-21T03:05:53.832Z,12.80
2019-04-21T03:08:29.996Z,12.80
2019-04-21T03:13:21.608Z,12.80
2019-04-21T03:20:42.443Z,12.80
2019-04-21T03:25:41.745Z,12.80
2019-04-21T03:28:06.426Z,12.80
2019-04-21T03:33:41.056Z,12.80
2019-04-21T03:35:58.221Z,12.80
2019-04-21T03:38:13.795Z,12.80
2019-04-21T03:40:18.670Z,12.70
2019-04-21T03:45:39.148Z,12.70
2019-04-21T03:47:55.253Z,12.60
2019-04-21T03:50:29.751Z,12.70
2019-04-21T03:52:55.083Z,12.70
2019-04-21T03:55:41.569Z,12.70
2019-04-21T04:00:36.687Z,12.70
2019-04-21T04:02:58.772Z,12.70
2019-04-21T04:05:21.474Z,12.70
2019-04-21T04:12:40.749Z,12.60
2019-04-21T04:15:12.082Z,12.70
2019-04-21T04:17:40.825Z,12.60
2019-04-21T04:20:04.031Z,12.60
2019-04-21T04:29:59.275Z,12.50
2019-04-21T04:32:29.250Z,12.40
2019-04-21T04:34:57.334Z,12.40
2019-04-21T04:37:32.077Z,12.30
2019-04-21T04:40:14.562Z,12.30
2019-04-21T04:42:29.922Z,12.30
2019-04-21T04:45:09.635Z,12.30
2019-04-21T04:47:16.689Z,12.20
2019-04-21T04:52:31.225Z,12.10
2019-04-21T04:57:16.419Z,12.20
2019-04-21T04:59:42.495Z,12.20
2019-04-21T05:04:50.032Z,12.20
2019-04-21T05:09:37.085Z,12.20
2019-04-21T05:12:01.934Z,12.30
2019-04-21T05:14:29.851Z,12.30
2019-04-21T05:19:51.640Z,12.40
2019-04-21T05:21:45.409Z,12.40
2019-04-21T05:24:12.410Z,12.40
2019-04-21T05:26:39.146Z,12.40
2019-04-21T05:29:02.077Z,12.40
2019-04-21T05:31:44.552Z,12.40
2019-04-21T05:34:12.082Z,12.50
2019-04-21T05:36:38.231Z,12.50
2019-04-21T05:39:07.199Z,12.60
2019-04-21T05:41:27.300Z,12.60
2019-04-21T05:44:03.808Z,12.70
2019-04-21T05:46:40.911Z,12.70
2019-04-21T05:49:02.909Z,12.80
2019-04-21T05:51:30.303Z,12.90
2019-04-21T05:54:10.850Z,12.90
2019-04-21T05:56:32.348Z,12.90
2019-04-21T05:58:58.124Z,13.10
2019-04-21T06:03:57.679Z,13.10
2019-04-21T06:06:27.069Z,13.10
2019-04-21T06:08:52.588Z,13.20
2019-04-21T06:13:57.545Z,13.30
2019-04-21T06:16:17.811Z,13.30
2019-04-21T06:18:48.564Z,13.40
2019-04-21T06:21:10.834Z,13.40
2019-04-21T06:23:43.579Z,13.50
2019-04-21T06:28:44.005Z,13.60
2019-04-21T06:31:18.149Z,13.60
2019-04-21T06:33:39.461Z,13.50
2019-04-21T06:38:43.384Z,13.70
2019-04-21T06:41:04.815Z,13.70
2019-04-21T06:43:37.237Z,13.80
2019-04-21T06:46:01.348Z,13.70
2019-04-21T06:48:30.157Z,13.80
2019-04-21T06:51:04.234Z,13.80
2019-04-21T06:53:29.474Z,14.00
2019-04-21T06:55:56.218Z,14.00
2019-04-21T06:58:20.850Z,14.10
2019-04-21T07:00:44.145Z,14.20
2019-04-21T07:05:54.726Z,14.40
2019-04-21T07:08:23.218Z,14.50
2019-04-21T07:10:41.585Z,14.50
2019-04-21T07:13:03.479Z,14.60
2019-04-21T07:15:40.988Z,14.60
2019-04-21T07:18:04.442Z,14.70
2019-04-21T07:20:30.764Z,14.90
2019-04-21T07:23:03.212Z,15.00
2019-04-21T07:25:29.234Z,15.00
2019-04-21T07:27:52.004Z,15.10
2019-04-21T07:30:26.523Z,15.10
2019-04-21T07:32:59.008Z,15.20
2019-04-21T07:35:31.829Z,15.20
2019-04-21T07:37:47.883Z,15.30
2019-04-21T07:40:12.391Z,15.40
2019-04-21T07:42:40.095Z,15.60
2019-04-21T07:45:05.166Z,15.50
2019-04-21T07:47:44.456Z,15.60
2019-04-21T07:50:07.386Z,15.70
2019-04-21T07:52:39.463Z,15.70
2019-04-21T07:57:31.640Z,15.90
2019-04-21T08:00:16.089Z,15.90
2019-04-21T08:02:29.170Z,16.00
2019-04-21T08:05:04.145Z,16.10
2019-04-21T08:07:32.369Z,16.40
2019-04-21T08:09:51.133Z,16.50
2019-04-21T08:12:18.313Z,16.50
2019-04-21T08:14:50.821Z,16.50
2019-04-21T08:17:16.199Z,16.60
2019-04-21T08:19:43.101Z,16.70
2019-04-21T08:22:18.645Z,16.70
2019-04-21T08:24:42.395Z,16.80
2019-04-21T08:27:14.164Z,16.90
2019-04-21T08:29:39.407Z,17.00
2019-04-21T08:32:28.091Z,17.00
2019-04-21T08:34:35.811Z,17.20
2019-04-21T08:37:02.696Z,17.30
2019-04-21T08:39:34.419Z,17.30
2019-04-21T08:41:55.954Z,17.40
2019-04-21T08:44:33.634Z,17.40
2019-04-21T08:47:00.225Z,17.20
2019-04-21T08:49:22.160Z,17.30
2019-04-21T08:51:55.894Z,17.50
2019-04-21T08:54:23.537Z,17.60
2019-04-21T08:56:48.318Z,17.70
2019-04-21T08:59:26.766Z,17.80
2019-04-21T09:01:48.861Z,18.00
2019-04-21T09:04:19.927Z,18.00
2019-04-21T09:06:58.678Z,18.00
2019-04-21T09:09:16.757Z,18.20
2019-04-21T09:11:40.469Z,18.30
2019-04-21T09:14:13.768Z,18.20
2019-04-21T09:16:36.739Z,18.40
2019-04-21T09:18:56.950Z,18.50
2019-04-21T09:21:42.294Z,18.50
2019-04-21T09:24:09.373Z,18.50
2019-04-21T09:26:31.126Z,18.30
2019-04-21T09:28:54.496Z,18.10
2019-04-21T09:31:08.958Z,18.00
2019-04-21T09:33:41.265Z,18.00
2019-04-21T09:36:07.033Z,18.00
2019-04-21T09:38:37.036Z,17.90
2019-04-21T09:41:00.500Z,17.60
2019-04-21T09:43:35.731Z,17.60
2019-04-21T09:45:54.846Z,17.60
2019-04-21T09:48:24.235Z,17.60
2019-04-21T09:50:50.336Z,17.60
2019-04-21T09:53:24.994Z,17.60
2019-04-21T09:55:53.569Z,17.60
2019-04-21T09:58:23.997Z,17.70
2019-04-21T10:00:52.438Z,17.70
2019-04-21T10:03:13.925Z,17.80
2019-04-21T10:05:39.209Z,17.80
2019-04-21T10:08:06.083Z,17.90
2019-04-21T10:10:32.288Z,17.90
2019-04-21T10:12:58.487Z,17.80
2019-04-21T10:15:26.511Z,17.60
2019-04-21T10:17:55.976Z,17.50
2019-04-21T10:20:22.420Z,17.70
2019-04-21T10:22:49.139Z,17.80
2019-04-21T10:25:16.542Z,18.10
2019-04-21T10:27:43.440Z,18.00
2019-04-21T10:30:09.997Z,18.10
2019-04-21T10:32:36.458Z,17.80
2019-04-21T10:35:05.501Z,17.90
2019-04-21T10:37:44.138Z,18.00
2019-04-21T10:40:00.113Z,18.40
2019-04-21T10:42:26.981Z,18.20
2019-04-21T10:44:54.734Z,18.00
2019-04-21T10:47:22.691Z,17.80
2019-04-21T10:49:49.105Z,18.00
2019-04-21T10:52:17.349Z,18.20
2019-04-21T10:55:07.280Z,18.30
2019-04-21T10:57:14.455Z,18.20
2019-04-21T10:59:46.194Z,18.30
2019-04-21T11:02:10.968Z,18.10
2019-04-21T11:04:39.082Z,17.90
2019-04-21T11:07:11.366Z,18.00
2019-04-21T11:09:36.087Z,18.00
2019-04-21T11:12:03.978Z,17.70
2019-04-21T11:14:31.495Z,17.70
2019-04-21T11:16:58.555Z,18.00
2019-04-21T11:19:25.042Z,18.20
2019-04-21T11:21:52.467Z,18.30
2019-04-21T11:24:18.875Z,18.10
2019-04-21T11:26:45.539Z,18.00
2019-04-21T11:29:12.819Z,18.00
2019-04-21T11:31:39.112Z,18.00
2019-04-21T11:34:05.318Z,18.10
2019-04-21T11:36:31.551Z,18.10
2019-04-21T11:39:16.820Z,18.00
2019-04-21T11:41:27.907Z,18.20
2019-04-21T11:43:55.020Z,18.40
2019-04-21T11:46:22.522Z,18.00
2019-04-21T11:48:50.309Z,18.20
2019-04-21T11:51:17.170Z,18.10
2019-04-21T11:53:43.476Z,18.10
2019-04-21T11:56:09.778Z,18.00
2019-04-21T11:58:36.110Z,18.00
2019-04-21T12:01:05.583Z,18.20
2019-04-21T12:03:33.489Z,18.30
2019-04-21T12:05:59.928Z,18.00
2019-04-21T12:08:34.344Z,18.00
2019-04-21T12:10:55.453Z,17.70
2019-04-21T12:13:22.358Z,17.80
2019-04-21T12:15:49.188Z,18.10
2019-04-21T12:18:15.601Z,18.30
2019-04-21T12:20:43.046Z,18.10
2019-04-21T12:23:09.347Z,17.90
2019-04-21T12:25:38.933Z,18.10
2019-04-21T12:28:05.855Z,18.30
2019-04-21T12:30:33.281Z,18.10
2019-04-21T12:33:02.413Z,18.30
2019-04-21T12:35:29.784Z,18.20
2019-04-21T12:37:56.380Z,17.90
2019-04-21T12:40:22.766Z,18.00
2019-04-21T12:42:49.007Z,18.10
2019-04-21T12:45:17.423Z,18.30
2019-04-21T12:47:44.054Z,18.40
2019-04-21T12:50:10.970Z,18.00
2019-04-21T12:52:37.807Z,18.10
2019-04-21T12:55:05.727Z,18.20
2019-04-21T12:57:33.235Z,18.30
2019-04-21T13:00:00.488Z,18.30
2019-04-21T13:02:27.446Z,18.20
2019-04-21T13:04:54.617Z,18.30
2019-04-21T13:07:21.755Z,18.40
2019-04-21T13:09:48.474Z,18.30
2019-04-21T13:12:15.236Z,18.20
2019-04-21T13:14:42.120Z,18.10
2019-04-21T13:17:09.754Z,18.00
2019-04-21T13:19:36.305Z,18.20
2019-04-21T13:22:03.855Z,18.20
2019-04-21T13:24:31.703Z,18.20
2019-04-21T13:27:00.228Z,18.30
2019-04-21T13:29:26.309Z,18.20
2019-04-21T13:31:52.458Z,18.40
2019-04-21T13:34:19.921Z,18.30
2019-04-21T13:36:47.575Z,18.10
2019-04-21T13:39:48.820Z,18.20
2019-04-21T13:41:56.717Z,18.30
2019-04-21T13:44:15.354Z,18.20
2019-04-21T13:46:42.981Z,18.40
2019-04-21T13:49:09.749Z,18.30
2019-04-21T13:51:36.140Z,18.40
2019-04-21T13:54:04.046Z,18.60
2019-04-21T13:56:30.364Z,18.30
2019-04-21T13:58:58.107Z,18.40
2019-04-21T14:01:25.601Z,18.50
2019-04-21T14:03:53.568Z,18.40
2019-04-21T14:06:20.379Z,18.40
2019-04-21T14:08:48.614Z,18.50
2019-04-21T14:11:15.576Z,18.50
2019-04-21T14:13:42.587Z,18.30
2019-04-21T14:16:09.684Z,18.50
2019-04-21T14:18:36.578Z,18.30
2019-04-21T14:21:03.168Z,18.20
2019-04-21T14:23:36.262Z,18.20
2019-04-21T14:25:57.594Z,18.10
2019-04-21T14:28:24.066Z,18.10
2019-04-21T14:30:50.572Z,18.30
2019-04-21T14:33:18.188Z,18.30
2019-04-21T14:35:45.083Z,18.40
2019-04-21T14:38:11.403Z,18.30
2019-04-21T14:40:38.828Z,18.30
2019-04-21T14:43:05.918Z,18.20
2019-04-21T14:45:34.636Z,18.50
2019-04-21T14:48:03.271Z,18.40
2019-04-21T14:50:32.469Z,18.50
2019-04-21T14:53:03.170Z,18.30
2019-04-21T14:55:31.168Z,18.50
2019-04-21T14:57:58.985Z,18.50
2019-04-21T15:00:29.323Z,18.60
2019-04-21T15:02:55.913Z,18.40
2019-04-21T15:05:25.106Z,18.20
2019-04-21T15:07:51.560Z,18.30
2019-04-21T15:10:22.268Z,18.50
2019-04-21T15:12:45.792Z,18.50
2019-04-21T15:15:12.010Z,18.60
2019-04-21T15:17:38.231Z,18.50
2019-04-21T15:20:11.131Z,18.30
2019-04-21T15:22:34.639Z,18.50
2019-04-21T15:25:00.871Z,18.80
2019-04-21T15:27:27.536Z,18.90
2019-04-21T15:29:53.876Z,18.90
2019-04-21T15:32:20.107Z,19.30
2019-04-21T15:34:46.316Z,19.00
2019-04-21T15:37:13.722Z,18.70
2019-04-21T15:39:40.477Z,18.60
2019-04-21T15:42:06.772Z,19.30
2019-04-21T15:44:34.530Z,19.00
2019-04-21T15:47:02.016Z,19.00
2019-04-21T15:49:40.510Z,18.70
2019-04-21T15:51:58.305Z,18.70
2019-04-21T15:54:24.778Z,19.10
2019-04-21T15:56:53.169Z,18.90
2019-04-21T15:59:22.174Z,18.40
2019-04-21T16:01:50.730Z,18.50
2019-04-21T16:04:18.491Z,18.80
2019-04-21T16:06:47.783Z,18.50
2019-04-21T16:09:16.557Z,18.40
2019-04-21T16:11:42.194Z,18.00
2019-04-21T16:14:10.017Z,18.20
2019-04-21T16:16:36.457Z,18.40
2019-04-21T16:19:03.752Z,18.30
2019-04-21T16:21:31.631Z,18.30
2019-04-21T16:23:58.299Z,18.30
2019-04-21T16:26:24.699Z,18.40
2019-04-21T16:28:51.241Z,18.20
2019-04-21T16:31:18.488Z,17.80
2019-04-21T16:33:45.230Z,18.00
2019-04-21T16:36:13.161Z,18.20
2019-04-21T16:38:39.702Z,18.70
2019-04-21T16:41:09.146Z,18.50
2019-04-21T16:43:35.304Z,17.90
2019-04-21T16:46:01.784Z,17.80
2019-04-21T16:48:27.993Z,18.10
2019-04-21T16:50:55.322Z,18.10
2019-04-21T16:53:23.995Z,18.00
2019-04-21T16:55:53.190Z,17.80
2019-04-21T16:58:25.093Z,17.40
2019-04-21T17:00:59.512Z,17.60
2019-04-21T17:03:19.691Z,17.40
2019-04-21T17:05:45.930Z,17.30
2019-04-21T17:08:13.640Z,17.10
2019-04-21T17:10:40.405Z,17.00
2019-04-21T17:13:09.627Z,17.20
2019-04-21T17:15:58.289Z,17.30
2019-04-21T17:18:23.062Z,17.10
2019-04-21T17:20:43.013Z,16.90
2019-04-21T17:23:01.682Z,17.00
2019-04-21T17:25:29.734Z,16.80
2019-04-21T17:27:56.870Z,16.70
2019-04-21T17:30:24.238Z,16.50
2019-04-21T17:32:51.825Z,16.70
2019-04-21T17:35:19.851Z,16.70
2019-04-21T17:37:47.808Z,16.80
2019-04-21T17:40:18.064Z,17.20
2019-04-21T17:42:51.103Z,17.30
2019-04-21T17:45:13.188Z,17.20
2019-04-21T17:47:46.430Z,17.00
2019-04-21T17:50:09.498Z,16.70
2019-04-21T17:52:43.714Z,16.70
2019-04-21T17:55:16.828Z,16.90
2019-04-21T17:57:54.457Z,17.10
2019-04-21T18:00:46.270Z,16.90
2019-04-21T18:02:53.212Z,16.90
2019-04-21T18:05:22.560Z,16.70
2019-04-21T18:07:46.799Z,16.40
2019-04-21T18:10:14.224Z,15.90
2019-04-21T18:12:39.988Z,15.70
2019-04-21T18:15:13.561Z,15.70
2019-04-21T18:17:22.679Z,15.50
2019-04-21T18:19:51.320Z,15.50
2019-04-21T18:22:19.587Z,15.40
2019-04-21T18:24:57.045Z,15.10
2019-04-21T18:27:17.529Z,15.10
2019-04-21T18:29:44.441Z,15.00
2019-04-21T18:32:12.313Z,15.00
2019-04-21T18:34:52.318Z,15.00
2019-04-21T18:37:17.416Z,15.00
2019-04-21T18:39:53.679Z,14.90
2019-04-21T18:42:26.373Z,14.90
2019-04-21T18:45:22.671Z,15.00
2019-04-21T18:47:31.963Z,15.00
2019-04-21T18:49:43.706Z,15.00
2019-04-21T18:52:20.662Z,15.00
2019-04-21T18:54:54.767Z,14.90
2019-04-21T18:57:17.247Z,15.00
2019-04-21T18:59:39.608Z,14.90
2019-04-21T19:02:08.051Z,14.80
2019-04-21T19:04:33.849Z,14.80
2019-04-21T19:07:16.892Z,14.80
2019-04-21T19:10:07.229Z,14.80
2019-04-21T19:12:12.280Z,14.70
2019-04-21T19:14:40.063Z,14.60
2019-04-21T19:17:39.695Z,14.70
2019-04-21T19:19:46.744Z,14.70
2019-04-21T19:22:06.467Z,14.60
2019-04-21T19:24:33.753Z,14.60
2019-04-21T19:27:08.125Z,14.60
2019-04-21T19:29:28.814Z,14.50
2019-04-21T19:31:54.677Z,14.50
2019-04-21T19:34:14.360Z,14.50
2019-04-21T19:36:36.530Z,14.40
2019-04-21T19:39:11.334Z,14.40
2019-04-21T19:41:45.846Z,14.40
2019-04-21T19:44:17.225Z,14.40
2019-04-21T19:46:43.457Z,14.40
2019-04-21T19:49:24.182Z,14.40
2019-04-21T19:51:36.296Z,14.50
2019-04-21T19:54:01.721Z,14.50
2019-04-21T19:56:21.960Z,14.40
2019-04-21T19:58:49.238Z,14.40
2019-04-21T20:01:17.344Z,14.30
2019-04-21T20:03:48.609Z,14.30
2019-04-21T20:06:30.141Z,14.40
2019-04-21T20:09:00.737Z,14.40
2019-04-21T20:11:24.137Z,14.40
2019-04-21T20:14:03.590Z,14.40
2019-04-21T20:16:23.069Z,14.40
2019-04-21T20:18:39.865Z,14.50
2019-04-21T20:21:01.766Z,14.60
2019-04-21T20:23:32.682Z,14.70
2019-04-21T20:26:01.162Z,14.70
2019-04-21T20:28:38.833Z,14.80
2019-04-21T20:31:17.639Z,14.90
2019-04-21T20:36:12.013Z,14.90
2019-04-21T20:38:30.147Z,14.90
2019-04-21T20:40:50.931Z,14.90
2019-04-21T20:43:30.931Z,15.00
2019-04-21T20:45:59.220Z,15.00
2019-04-21T20:48:18.077Z,15.00
2019-04-21T20:50:57.366Z,15.00
2019-04-21T20:53:21.639Z,15.00
2019-04-21T20:55:48.466Z,15.00
2019-04-21T20:58:07.852Z,15.00
2019-04-21T21:01:04.221Z,14.90
2019-04-21T21:03:17.837Z,14.70
2019-04-21T21:05:37.573Z,14.60
2019-04-21T21:08:14.927Z,14.50
2019-04-21T21:10:36.955Z,14.50
2019-04-21T21:13:14.526Z,14.40
2019-04-21T21:15:32.377Z,14.40
2019-04-21T21:18:05.825Z,14.30
2019-04-21T21:20:30.994Z,14.20
2019-04-21T21:22:55.374Z,14.20
2019-04-21T21:25:35.316Z,14.10
2019-04-21T21:27:48.250Z,14.00
2019-04-21T21:30:18.385Z,14.00
2019-04-21T21:32:53.067Z,13.90
2019-04-21T21:35:17.552Z,13.80
2019-04-21T21:37:49.000Z,13.80
2019-04-21T21:40:18.683Z,13.80
2019-04-21T21:42:30.517Z,13.70
2019-04-21T21:45:00.764Z,13.70
2019-04-21T21:47:39.447Z,13.70
2019-04-21T21:50:02.538Z,13.80
2019-04-21T21:52:31.412Z,13.80
2019-04-21T21:54:45.619Z,13.80
2019-04-21T21:57:12.395Z,13.80
2019-04-21T21:59:40.432Z,13.80
2019-04-21T22:02:09.372Z,13.90
2019-04-21T22:04:37.256Z,13.90
2019-04-21T22:07:07.293Z,13.90
2019-04-21T22:09:32.272Z,13.90
2019-04-21T22:12:02.806Z,14.00
2019-04-21T22:14:34.055Z,14.00
2019-04-21T22:17:10.683Z,14.00
2019-04-21T22:19:48.897Z,14.00
2019-04-21T22:22:09.259Z,14.00
2019-04-21T22:24:34.958Z,14.10
2019-04-21T22:26:47.354Z,14.10
2019-04-21T22:29:13.836Z,14.10
2019-04-21T22:31:41.568Z,14.00
2019-04-21T22:34:12.206Z,14.00
2019-04-21T22:36:48.809Z,14.00
2019-04-21T22:39:23.827Z,14.00
2019-04-21T22:41:41.207Z,14.00
2019-04-21T22:44:03.083Z,14.00
2019-04-21T22:46:30.573Z,14.10
2019-04-21T22:49:03.152Z,14.10
2019-04-21T22:51:34.840Z,14.20
2019-04-21T22:53:55.764Z,14.20
2019-04-21T22:56:26.852Z,14.20
2019-04-21T22:58:50.011Z,14.20
2019-04-21T23:01:17.763Z,14.20
2019-04-21T23:03:49.203Z,14.30
2019-04-21T23:06:17.895Z,14.50
2019-04-21T23:08:45.228Z,14.50
2019-04-21T23:11:12.276Z,14.50
2019-04-21T23:13:38.640Z,14.50
2019-04-21T23:16:06.320Z,14.40
2019-04-21T23:18:46.386Z,14.30
2019-04-21T23:21:13.550Z,14.30
2019-04-21T23:23:52.890Z,14.20
2019-04-21T23:26:18.224Z,14.10
2019-04-21T23:28:49.063Z,14.00
2019-04-21T23:31:15.454Z,13.90
2019-04-21T23:33:22.090Z,13.90
2019-04-21T23:35:53.257Z,13.90
2019-04-21T23:38:26.513Z,13.90
2019-04-21T23:40:51.684Z,14.00
2019-04-21T23:43:17.236Z,14.00
2019-04-21T23:45:44.598Z,13.90
2019-04-21T23:48:23.308Z,13.90
2019-04-21T23:50:48.233Z,13.90
2019-04-21T23:53:05.649Z,13.80
2019-04-21T23:55:32.026Z,13.80
2019-04-21T23:58:09.422Z,13.80
